createdAt,value
2019-03-18T00:01:53.517Z,3.73
2019-03-18T00:04:25.857Z,3.60
2019-03-18T00:06:58.178Z,3.17
2019-03-18T00:09:31.041Z,3.60
2019-03-18T00:12:03.025Z,3.60
2019-03-18T00:14:35.583Z,4.30
2019-03-18T00:17:09.797Z,3.60
2019-03-18T00:19:43.070Z,3.80
2019-03-18T00:22:15.969Z,3.17
2019-03-18T00:24:48.107Z,3.13
2019-03-18T00:27:20.515Z,2.63
2019-03-18T00:29:52.786Z,2.33
2019-03-18T00:32:25.252Z,2.43
2019-03-18T00:34:57.628Z,2.60
2019-03-18T00:37:30.096Z,2.40
2019-03-18T00:40:02.009Z,2.17
2019-03-18T00:42:34.437Z,2.03
2019-03-18T00:45:14.596Z,1.90
2019-03-18T00:47:42.861Z,1.80
2019-03-18T00:50:19.239Z,2.00
2019-03-18T00:52:51.717Z,2.57
2019-03-18T00:55:23.630Z,2.20
2019-03-18T00:57:56.039Z,2.00
2019-03-18T01:00:28.513Z,2.40
2019-03-18T01:03:00.882Z,1.97
2019-03-18T01:05:33.164Z,2.27
2019-03-18T01:08:05.635Z,1.77
2019-03-18T01:10:37.902Z,2.67
2019-03-18T01:13:10.376Z,2.30
2019-03-18T01:15:42.286Z,2.33
2019-03-18T01:18:16.245Z,2.07
2019-03-18T01:20:49.640Z,2.80
2019-03-18T01:23:22.010Z,2.60
2019-03-18T01:25:55.305Z,3.17
2019-03-18T01:28:27.265Z,2.70
2019-03-18T01:30:59.179Z,3.27
2019-03-18T01:33:31.226Z,3.03
2019-03-18T01:36:03.562Z,2.87
2019-03-18T01:38:35.939Z,3.53
2019-03-18T01:41:08.208Z,3.33
2019-03-18T01:43:40.580Z,3.47
2019-03-18T01:46:12.850Z,2.40
2019-03-18T01:48:45.222Z,3.30
2019-03-18T01:51:17.127Z,2.60
2019-03-18T01:53:49.089Z,2.83
2019-03-18T01:56:21.407Z,3.43
2019-03-18T01:58:53.465Z,3.20
2019-03-18T02:01:25.376Z,3.20
2019-03-18T02:03:58.014Z,2.50
2019-03-18T02:06:29.923Z,2.60
2019-03-18T02:09:02.246Z,2.20
2019-03-18T02:11:34.521Z,2.30
2019-03-18T02:14:06.989Z,2.20
2019-03-18T02:16:39.264Z,2.30
2019-03-18T02:19:11.944Z,1.80
2019-03-18T02:21:44.209Z,1.77
2019-03-18T02:24:16.679Z,2.03
2019-03-18T02:26:49.059Z,2.10
2019-03-18T02:29:21.432Z,1.80
2019-03-18T02:31:53.702Z,1.57
2019-03-18T02:34:26.177Z,1.93
2019-03-18T02:36:58.079Z,2.20
2019-03-18T02:39:30.401Z,1.70
2019-03-18T02:42:02.679Z,2.17
2019-03-18T02:44:35.042Z,1.87
2019-03-18T02:47:07.318Z,2.00
2019-03-18T02:49:39.685Z,1.87
2019-03-18T02:52:12.056Z,1.60
2019-03-18T02:54:44.433Z,1.90
2019-03-18T02:57:16.758Z,1.60
2019-03-18T02:59:49.174Z,1.93
2019-03-18T03:02:21.077Z,1.93
2019-03-18T03:04:53.051Z,2.50
2019-03-18T03:07:25.368Z,2.10
2019-03-18T03:09:57.740Z,1.93
2019-03-18T03:12:30.016Z,2.00
2019-03-18T03:15:02.392Z,2.20
2019-03-18T03:17:35.673Z,1.60
2019-03-18T03:20:10.909Z,1.83
2019-03-18T03:22:43.290Z,2.30
2019-03-18T03:25:15.758Z,1.70
2019-03-18T03:27:47.659Z,1.90
2019-03-18T03:30:19.998Z,1.77
2019-03-18T03:32:52.309Z,2.03
2019-03-18T03:35:24.422Z,2.53
2019-03-18T03:37:56.336Z,1.80
2019-03-18T03:40:28.760Z,1.60
2019-03-18T03:43:01.036Z,1.93
2019-03-18T03:45:33.403Z,1.97
2019-03-18T03:48:05.534Z,2.60
2019-03-18T03:50:38.047Z,1.30
2019-03-18T03:53:10.175Z,1.70
2019-03-18T03:55:42.582Z,2.13
2019-03-18T03:58:14.858Z,1.67
2019-03-18T04:00:47.228Z,2.00
2019-03-18T04:03:19.604Z,1.93
2019-03-18T04:05:53.120Z,1.90
2019-03-18T04:08:25.370Z,2.00
2019-03-18T04:10:57.341Z,1.90
2019-03-18T04:13:29.600Z,2.40
2019-03-18T04:16:01.665Z,1.67
2019-03-18T04:18:33.935Z,2.30
2019-03-18T04:21:06.718Z,1.90
2019-03-18T04:23:38.985Z,2.20
2019-03-18T04:26:11.369Z,2.03
2019-03-18T04:28:43.681Z,1.63
2019-03-18T04:31:15.652Z,1.93
2019-03-18T04:33:47.991Z,1.33
2019-03-18T04:36:20.428Z,1.80
2019-03-18T04:38:52.707Z,2.30
2019-03-18T04:41:25.980Z,2.20
2019-03-18T04:43:58.262Z,1.30
2019-03-18T04:46:37.088Z,1.40
2019-03-18T04:49:11.022Z,1.70
2019-03-18T04:51:49.377Z,2.03
2019-03-18T04:54:23.117Z,2.53
2019-03-18T04:56:55.664Z,2.53
2019-03-18T04:59:28.129Z,2.33
2019-03-18T05:02:00.536Z,3.90
2019-03-18T05:04:32.809Z,3.27
2019-03-18T05:07:05.812Z,3.47
2019-03-18T05:09:38.165Z,2.40
2019-03-18T05:12:10.948Z,2.60
2019-03-18T05:14:42.850Z,2.50
2019-03-18T05:17:26.198Z,2.70
2019-03-18T05:19:48.806Z,3.00
2019-03-18T05:22:21.564Z,2.20
2019-03-18T05:24:53.825Z,2.77
2019-03-18T05:27:26.204Z,3.10
2019-03-18T05:29:58.473Z,2.27
2019-03-18T05:32:30.900Z,2.07
2019-03-18T05:35:02.807Z,2.97
2019-03-18T05:37:35.172Z,2.83
2019-03-18T05:40:09.297Z,3.93
2019-03-18T05:42:41.655Z,2.47
2019-03-18T05:45:13.567Z,3.10
2019-03-18T05:47:45.900Z,3.40
2019-03-18T05:50:18.271Z,2.83
2019-03-18T05:52:50.633Z,2.50
2019-03-18T05:55:22.912Z,2.97
2019-03-18T05:57:55.374Z,3.27
2019-03-18T06:00:27.413Z,3.70
2019-03-18T06:02:59.935Z,2.90
2019-03-18T06:05:32.303Z,3.30
2019-03-18T06:08:04.668Z,1.87
2019-03-18T06:10:37.035Z,2.13
2019-03-18T06:13:09.586Z,2.20
2019-03-18T06:15:41.884Z,2.60
2019-03-18T06:18:13.940Z,2.67
2019-03-18T06:20:46.212Z,3.43
2019-03-18T06:23:19.206Z,2.67
2019-03-18T06:25:51.118Z,3.30
2019-03-18T06:28:23.432Z,2.03
2019-03-18T06:30:55.808Z,2.40
2019-03-18T06:33:28.180Z,2.63
2019-03-18T06:36:00.446Z,2.47
2019-03-18T06:38:32.915Z,2.37
2019-03-18T06:41:06.423Z,3.03
2019-03-18T06:43:38.838Z,2.83
2019-03-18T06:46:11.162Z,2.03
2019-03-18T06:48:43.132Z,2.07
2019-03-18T06:51:15.391Z,2.60
2019-03-18T06:53:47.872Z,3.00
2019-03-18T06:56:20.138Z,3.10
2019-03-18T06:58:52.624Z,4.10
2019-03-18T07:01:24.886Z,3.00
2019-03-18T07:03:57.099Z,3.33
2019-03-18T07:06:29.419Z,3.10
2019-03-18T07:09:03.328Z,3.53
2019-03-18T07:11:35.603Z,4.70
2019-03-18T07:14:07.977Z,4.13
2019-03-18T07:16:40.247Z,4.43
2019-03-18T07:19:12.618Z,4.20
2019-03-18T07:21:45.098Z,3.87
2019-03-18T07:24:18.100Z,3.87
2019-03-18T07:26:50.448Z,4.30
2019-03-18T07:29:22.926Z,4.57
2019-03-18T07:31:56.604Z,3.70
2019-03-18T07:34:29.107Z,3.80
2019-03-18T07:37:01.472Z,4.70
2019-03-18T07:39:33.538Z,4.17
2019-03-18T07:42:06.751Z,3.73
2019-03-18T07:44:39.106Z,3.83
2019-03-18T07:47:11.366Z,3.60
2019-03-18T07:49:43.737Z,3.23
2019-03-18T07:52:16.013Z,3.37
2019-03-18T07:54:48.387Z,3.20
2019-03-18T07:57:20.653Z,3.53
2019-03-18T07:59:53.021Z,3.90
2019-03-18T08:02:25.149Z,3.30
2019-03-18T08:04:57.662Z,4.20
2019-03-18T08:07:29.577Z,3.00
2019-03-18T08:10:02.522Z,2.93
2019-03-18T08:12:35.802Z,3.07
2019-03-18T08:15:13.213Z,3.00
2019-03-18T08:17:45.568Z,3.00
2019-03-18T08:20:17.941Z,3.90
2019-03-18T08:22:50.210Z,3.67
2019-03-18T08:25:23.097Z,2.33
2019-03-18T08:27:55.357Z,3.37
2019-03-18T08:30:27.736Z,2.67
2019-03-18T08:32:59.647Z,3.07
2019-03-18T08:35:32.269Z,2.93
2019-03-18T08:38:04.545Z,2.50
2019-03-18T08:40:36.988Z,2.90
2019-03-18T08:43:09.287Z,2.80
2019-03-18T08:45:41.758Z,3.10
2019-03-18T08:48:14.032Z,2.07
2019-03-18T08:50:46.406Z,3.00
2019-03-18T08:53:18.777Z,2.63
2019-03-18T08:55:51.143Z,2.00
2019-03-18T08:58:24.721Z,2.63
2019-03-18T09:00:57.221Z,2.67
2019-03-18T09:03:29.589Z,2.63
2019-03-18T09:06:02.084Z,2.70
2019-03-18T09:08:34.333Z,2.80
2019-03-18T09:11:06.871Z,2.03
2019-03-18T09:13:38.780Z,2.37
2019-03-18T09:16:12.581Z,1.83
2019-03-18T09:18:44.848Z,2.70
2019-03-18T09:21:17.321Z,2.70
2019-03-18T09:23:49.697Z,2.43
2019-03-18T09:26:22.791Z,2.40
2019-03-18T09:28:55.800Z,2.60
2019-03-18T09:31:28.238Z,2.47
2019-03-18T09:34:00.254Z,2.53
2019-03-18T09:36:32.581Z,2.50
2019-03-18T09:39:06.283Z,2.47
2019-03-18T09:41:38.658Z,1.27
2019-03-18T09:44:11.030Z,2.50
2019-03-18T09:46:43.399Z,2.20
2019-03-18T09:49:21.492Z,1.60
2019-03-18T09:51:49.270Z,2.40
2019-03-18T09:54:21.185Z,2.17
2019-03-18T09:56:53.150Z,1.70
2019-03-18T09:59:26.585Z,1.60
2019-03-18T10:02:00.241Z,1.47
2019-03-18T10:04:32.459Z,2.77
2019-03-18T10:07:04.838Z,1.97
2019-03-18T10:09:37.099Z,2.17
2019-03-18T10:12:09.478Z,2.00
2019-03-18T10:14:41.843Z,2.20
2019-03-18T10:17:13.846Z,2.20
2019-03-18T10:19:46.176Z,2.10
2019-03-18T10:22:18.764Z,1.70
2019-03-18T10:24:50.670Z,1.03
2019-03-18T10:27:23.084Z,1.73
2019-03-18T10:29:55.458Z,2.07
2019-03-18T10:32:27.840Z,2.10
2019-03-18T10:35:00.323Z,1.90
2019-03-18T10:37:32.683Z,1.43
2019-03-18T10:40:06.894Z,1.87
2019-03-18T10:42:39.273Z,1.37
2019-03-18T10:45:14.306Z,2.97
2019-03-18T10:47:46.778Z,1.60
2019-03-18T10:50:20.275Z,1.70
2019-03-18T10:52:52.683Z,2.67
2019-03-18T10:55:24.918Z,1.57
2019-03-18T10:57:57.255Z,1.77
2019-03-18T11:00:29.622Z,2.07
2019-03-18T11:03:01.995Z,1.90
2019-03-18T11:05:34.385Z,2.77
2019-03-18T11:08:06.582Z,2.27
2019-03-18T11:10:38.919Z,3.43
2019-03-18T11:13:11.292Z,2.27
2019-03-18T11:15:43.203Z,1.67
2019-03-18T11:18:15.616Z,2.20
2019-03-18T11:20:47.995Z,2.80
2019-03-18T11:23:20.367Z,2.30
2019-03-18T11:25:55.401Z,1.50
2019-03-18T11:28:27.767Z,2.60
2019-03-18T11:30:59.678Z,2.40
2019-03-18T11:33:32.715Z,1.53
2019-03-18T11:36:05.096Z,2.97
2019-03-18T11:38:37.469Z,1.70
2019-03-18T11:41:09.840Z,2.53
2019-03-18T11:43:42.417Z,1.33
2019-03-18T11:46:14.787Z,1.50
2019-03-18T11:48:47.155Z,1.57
2019-03-18T11:51:19.532Z,1.80
2019-03-18T11:53:52.015Z,1.70
2019-03-18T11:56:24.590Z,1.30
2019-03-18T11:58:57.058Z,1.47
2019-03-18T12:01:29.941Z,1.70
2019-03-18T12:04:02.407Z,1.30
2019-03-18T12:06:34.892Z,1.50
2019-03-18T12:09:08.392Z,1.50
2019-03-18T12:11:40.964Z,1.20
2019-03-18T12:14:13.440Z,1.50
2019-03-18T12:16:45.700Z,1.30
2019-03-18T12:19:18.141Z,1.83
2019-03-18T12:21:50.454Z,1.30
2019-03-18T12:24:23.533Z,1.40
2019-03-18T12:26:55.918Z,1.97
2019-03-18T12:29:28.290Z,2.10
2019-03-18T12:32:00.541Z,1.90
2019-03-18T12:34:32.922Z,1.67
2019-03-18T12:37:05.196Z,1.13
2019-03-18T12:39:37.169Z,1.23
2019-03-18T12:42:10.166Z,1.50
2019-03-18T12:44:42.509Z,1.60
2019-03-18T12:47:14.881Z,1.50
2019-03-18T12:49:47.270Z,1.80
2019-03-18T12:52:19.638Z,1.50
2019-03-18T12:54:52.186Z,1.40
2019-03-18T12:57:24.713Z,1.60
2019-03-18T12:59:57.402Z,2.10
2019-03-18T13:02:29.538Z,2.13
2019-03-18T13:05:01.906Z,3.37
2019-03-18T13:07:34.275Z,2.47
2019-03-18T13:10:11.053Z,2.20
2019-03-18T13:12:43.430Z,1.60
2019-03-18T13:15:22.249Z,1.53
2019-03-18T13:17:54.844Z,1.17
2019-03-18T13:20:28.369Z,1.53
2019-03-18T13:23:00.685Z,3.63
2019-03-18T13:25:33.055Z,1.83
2019-03-18T13:28:05.431Z,1.53
2019-03-18T13:30:37.812Z,1.70
2019-03-18T13:33:10.184Z,1.07
2019-03-18T13:35:43.231Z,1.50
2019-03-18T13:38:15.788Z,1.87
2019-03-18T13:40:48.115Z,1.83
2019-03-18T13:43:20.489Z,1.30
2019-03-18T13:45:55.606Z,2.30
2019-03-18T13:48:26.772Z,1.70
2019-03-18T13:50:59.140Z,2.50
2019-03-18T13:53:31.402Z,2.50
2019-03-18T13:56:03.782Z,2.00
2019-03-18T13:58:36.260Z,2.20
2019-03-18T14:01:08.615Z,1.60
2019-03-18T14:03:40.999Z,1.53
2019-03-18T14:06:13.383Z,1.03
2019-03-18T14:08:46.863Z,1.50
2019-03-18T14:11:20.988Z,1.80
2019-03-18T14:13:53.379Z,1.03
2019-03-18T14:16:25.735Z,1.20
2019-03-18T14:18:58.086Z,1.27
2019-03-18T14:21:33.406Z,1.30
2019-03-18T14:24:04.472Z,2.93
2019-03-18T14:26:36.856Z,1.60
2019-03-18T14:29:09.228Z,2.10
2019-03-18T14:31:43.768Z,2.07
2019-03-18T14:34:15.764Z,1.97
2019-03-18T14:36:48.179Z,1.80
2019-03-18T14:39:20.604Z,1.33
2019-03-18T14:41:53.206Z,2.63
2019-03-18T14:44:25.365Z,3.67
2019-03-18T14:46:58.286Z,1.10
2019-03-18T14:49:30.665Z,1.63
2019-03-18T14:52:05.695Z,1.57
2019-03-18T14:54:38.670Z,1.93
2019-03-18T14:57:11.151Z,1.27
2019-03-18T14:59:43.519Z,1.57
2019-03-18T15:02:15.992Z,1.43
2019-03-18T15:04:48.261Z,1.90
2019-03-18T15:07:20.237Z,1.10
2019-03-18T15:09:52.603Z,1.40
2019-03-18T15:12:24.967Z,0.97
2019-03-18T15:14:57.342Z,2.07
2019-03-18T15:17:29.724Z,1.00
2019-03-18T15:20:02.745Z,1.73
2019-03-18T15:22:35.183Z,1.43
2019-03-18T15:25:24.113Z,2.07
2019-03-18T15:27:59.970Z,2.47
2019-03-18T15:30:36.602Z,2.00
2019-03-18T15:33:10.171Z,1.33
2019-03-18T15:38:43.456Z,1.60
2019-03-18T15:41:23.008Z,1.70
2019-03-18T15:44:07.588Z,1.33
2019-03-18T15:46:48.108Z,1.40
2019-03-18T15:49:21.129Z,1.30
2019-03-18T15:51:54.658Z,1.50
2019-03-18T15:54:54.103Z,1.67
2019-03-18T15:57:29.870Z,0.90
2019-03-18T15:59:59.383Z,1.57
2019-03-18T16:02:31.712Z,2.07
2019-03-18T16:05:03.701Z,1.77
2019-03-18T16:07:36.010Z,1.40
2019-03-18T16:10:12.901Z,1.37
2019-03-18T16:12:46.354Z,1.90
2019-03-18T16:15:19.775Z,2.00
2019-03-18T16:17:52.151Z,2.67
2019-03-18T16:20:27.013Z,2.40
2019-03-18T16:22:59.333Z,1.70
2019-03-18T16:25:32.020Z,1.70
2019-03-18T16:28:04.186Z,2.07
2019-03-18T16:30:36.164Z,1.80
2019-03-18T16:33:08.518Z,1.30
2019-03-18T16:35:40.885Z,1.77
2019-03-18T16:38:12.798Z,2.00
2019-03-18T16:40:45.232Z,3.80
2019-03-18T16:43:17.592Z,2.53
2019-03-18T16:45:49.966Z,3.27
2019-03-18T16:48:22.233Z,4.70
2019-03-18T16:50:54.617Z,3.87
2019-03-18T16:53:27.448Z,5.90
2019-03-18T16:55:59.875Z,3.77
2019-03-18T16:58:32.556Z,4.63
2019-03-18T17:01:05.166Z,2.33
2019-03-18T17:03:37.539Z,3.40
2019-03-18T17:06:10.084Z,2.90
2019-03-18T17:08:42.187Z,3.93
2019-03-18T17:11:14.612Z,2.77
2019-03-18T17:13:46.983Z,3.23
2019-03-18T17:16:19.407Z,2.87
2019-03-18T17:18:51.721Z,2.80
2019-03-18T17:21:24.156Z,2.63
2019-03-18T17:23:56.468Z,1.80
2019-03-18T17:26:28.450Z,2.03
2019-03-18T17:29:00.807Z,2.60
2019-03-18T17:31:34.228Z,2.63
2019-03-18T17:34:07.160Z,2.20
2019-03-18T17:36:39.556Z,1.70
2019-03-18T17:39:14.417Z,2.80
2019-03-18T17:41:45.065Z,1.80
2019-03-18T17:44:17.285Z,3.13
2019-03-18T17:46:49.872Z,3.17
2019-03-18T17:49:22.346Z,3.00
2019-03-18T17:51:54.811Z,4.20
2019-03-18T17:54:27.081Z,4.93
2019-03-18T17:57:07.296Z,3.40
2019-03-18T17:59:34.599Z,4.50
2019-03-18T18:02:07.093Z,9.93
2019-03-18T18:04:39.088Z,7.30
2019-03-18T18:07:11.610Z,6.47
2019-03-18T18:09:43.980Z,4.53
2019-03-18T18:12:16.353Z,5.27
2019-03-18T18:14:48.738Z,6.80
2019-03-18T18:17:21.190Z,5.17
2019-03-18T18:19:53.574Z,4.70
2019-03-18T18:22:26.046Z,4.27
2019-03-18T18:24:58.418Z,4.10
2019-03-18T18:27:30.795Z,3.70
2019-03-18T18:30:03.152Z,3.80
2019-03-18T18:32:36.650Z,4.00
2019-03-18T18:35:10.937Z,3.10
2019-03-18T18:37:43.341Z,4.63
2019-03-18T18:40:30.257Z,3.47
2019-03-18T18:43:02.634Z,2.70
2019-03-18T18:45:35.010Z,3.10
2019-03-18T18:48:07.388Z,2.37
2019-03-18T18:50:39.745Z,3.13
2019-03-18T18:53:11.972Z,1.97
2019-03-18T18:55:44.383Z,2.40
2019-03-18T18:58:16.773Z,2.13
2019-03-18T19:00:49.024Z,1.60
2019-03-18T19:03:22.438Z,1.53
2019-03-18T19:05:57.253Z,1.33
2019-03-18T19:08:31.255Z,1.90
2019-03-18T19:11:05.196Z,2.50
2019-03-18T19:13:42.283Z,2.47
2019-03-18T19:16:17.444Z,2.07
2019-03-18T19:18:49.983Z,2.70
2019-03-18T19:21:22.349Z,1.70
2019-03-18T19:23:54.728Z,3.40
2019-03-18T19:26:27.087Z,2.53
2019-03-18T19:29:00.098Z,1.90
2019-03-18T19:31:32.444Z,2.33
2019-03-18T19:34:05.231Z,2.43
2019-03-18T19:36:38.729Z,3.10
2019-03-18T19:39:11.097Z,2.40
2019-03-18T19:41:43.872Z,4.37
2019-03-18T19:44:17.474Z,3.10
2019-03-18T19:46:50.391Z,3.80
2019-03-18T19:49:22.745Z,3.73
2019-03-18T19:51:55.113Z,3.43
2019-03-18T19:54:27.099Z,5.50
2019-03-18T19:56:59.443Z,4.80
2019-03-18T19:59:31.915Z,5.50
2019-03-18T20:02:04.299Z,4.77
2019-03-18T20:04:36.278Z,2.67
2019-03-18T20:07:08.627Z,3.43
2019-03-18T20:09:40.997Z,3.10
2019-03-18T20:12:12.918Z,3.53
2019-03-18T20:14:45.547Z,2.60
2019-03-18T20:17:17.866Z,3.33
2019-03-18T20:19:50.181Z,3.20
2019-03-18T20:22:22.550Z,2.90
2019-03-18T20:24:54.925Z,3.00
2019-03-18T20:27:27.286Z,2.63
2019-03-18T20:30:00.839Z,2.80
2019-03-18T20:32:33.581Z,2.90
2019-03-18T20:35:12.920Z,3.10
2019-03-18T20:37:45.407Z,2.70
2019-03-18T20:40:18.791Z,2.50
2019-03-18T20:42:59.830Z,2.57
2019-03-18T20:45:34.693Z,3.00
2019-03-18T20:48:07.108Z,2.10
2019-03-18T20:50:39.638Z,1.73
2019-03-18T20:53:12.009Z,5.40
2019-03-18T20:55:44.436Z,7.50
2019-03-18T20:58:16.747Z,2.47
2019-03-18T21:00:59.877Z,2.37
2019-03-18T21:03:32.350Z,3.43
2019-03-18T21:06:05.027Z,2.63
2019-03-18T21:08:37.286Z,3.10
2019-03-18T21:11:12.374Z,4.27
2019-03-18T21:13:56.474Z,6.60
2019-03-18T21:16:21.570Z,4.17
2019-03-18T21:18:53.845Z,3.37
2019-03-18T21:21:25.846Z,4.10
2019-03-18T21:23:58.191Z,2.40
2019-03-18T21:26:32.301Z,1.83
2019-03-18T21:29:04.673Z,1.73
2019-03-18T21:31:37.135Z,2.13
2019-03-18T21:34:09.506Z,1.37
2019-03-18T21:36:41.980Z,2.03
2019-03-18T21:39:14.568Z,3.13
2019-03-18T21:41:47.878Z,2.43
2019-03-18T21:44:20.327Z,1.73
2019-03-18T21:46:52.700Z,2.07
2019-03-18T21:49:24.970Z,2.03
2019-03-18T21:51:57.653Z,2.33
2019-03-18T21:54:33.988Z,2.60
2019-03-18T21:57:04.540Z,2.43
2019-03-18T21:59:37.019Z,2.90
2019-03-18T22:02:09.451Z,3.20
2019-03-18T22:04:41.775Z,2.27
2019-03-18T22:07:21.808Z,2.63
2019-03-18T22:10:02.712Z,2.90
2019-03-18T22:13:08.782Z,2.20
2019-03-18T22:15:45.027Z,2.20
2019-03-18T22:18:17.488Z,2.37
2019-03-18T22:20:49.858Z,2.00
2019-03-18T22:23:22.226Z,2.93
2019-03-18T22:25:54.375Z,2.83
2019-03-18T22:28:26.446Z,3.37
2019-03-18T22:30:58.729Z,3.03
2019-03-18T22:33:36.144Z,3.50
2019-03-18T22:36:09.016Z,3.53
2019-03-18T22:38:41.691Z,3.50
2019-03-18T22:41:14.045Z,2.73
2019-03-18T22:43:49.894Z,4.27
2019-03-18T22:46:22.288Z,3.67
2019-03-18T22:48:54.661Z,4.07
2019-03-18T22:51:28.156Z,4.20
2019-03-18T22:54:00.521Z,3.97
2019-03-18T22:56:32.951Z,3.50
2019-03-18T22:59:04.937Z,2.40
2019-03-18T23:01:37.227Z,1.77
2019-03-18T23:04:09.203Z,2.37
2019-03-18T23:06:41.560Z,2.20
2019-03-18T23:09:14.054Z,3.23
2019-03-18T23:11:46.417Z,2.70
2019-03-18T23:14:18.881Z,2.90
2019-03-18T23:16:51.159Z,2.57
2019-03-18T23:19:23.624Z,2.13
2019-03-18T23:21:56.000Z,3.10
2019-03-18T23:24:28.368Z,1.63
2019-03-18T23:27:00.302Z,3.10
2019-03-18T23:29:32.698Z,2.37
2019-03-18T23:32:04.628Z,2.07
2019-03-18T23:34:37.137Z,2.27
2019-03-18T23:37:09.517Z,1.87
2019-03-18T23:39:41.508Z,2.43
2019-03-18T23:42:13.855Z,3.20
2019-03-18T23:44:46.223Z,3.53
2019-03-18T23:47:18.602Z,3.50
2019-03-18T23:49:51.074Z,3.37
2019-03-18T23:52:22.985Z,2.93
2019-03-18T23:54:55.411Z,2.03
2019-03-18T23:57:27.775Z,3.07
